Time;durP1;ratioP1;P1;durP2;ratioP2;P2;SDS_P1;SDS_P2;PMS_P1;PMS_P2;Temp;Humidity;BMP_temperature;BMP_pressure;BME280_temperature;BME280_humidity;BME280_pressure;Samples;Min_cycle;Max_cycle;Signal;HPM_P1;HPM_P2
2023/03/15 00:00:56;;;;;;;3.60;1.75;;;;;;;9.88;63.25;97916.41;4261819;33;33286;-89
2023/03/15 00:03:24;;;;;;;6.05;1.70;;;;;;;9.98;62.99;97924.12;4272144;33;34672;-89
2023/03/15 00:05:51;;;;;;;4.15;1.37;;;;;;;10.09;63.44;97923.22;4278116;33;33883;-85
2023/03/15 00:08:20;;;;;;;3.28;1.55;;;;;;;10.20;62.27;97917.09;4286263;33;33973;-88
2023/03/15 00:10:48;;;;;;;3.00;1.58;;;;;;;10.06;62.77;97929.25;4260040;33;33518;-86
2023/03/15 00:13:17;;;;;;;3.75;1.37;;;;;;;9.84;63.65;97932.81;4273809;33;34056;-90
2023/03/15 00:15:49;;;;;;;2.62;1.50;;;;;;;9.79;62.60;97932.84;4272784;33;33797;-90
2023/03/15 00:18:17;;;;;;;3.60;1.40;;;;;;;9.91;62.74;97934.50;4256927;33;32607;-90
2023/03/15 00:20:46;;;;;;;3.05;1.60;;;;;;;10.07;60.98;97937.88;4273199;33;33430;-89
2023/03/15 00:23:14;;;;;;;4.55;1.30;;;;;;;9.82;62.05;97943.19;4265713;33;33499;-87
2023/03/15 00:25:44;;;;;;;3.08;1.70;;;;;;;9.61;61.94;97945.84;4283438;33;33990;-87
2023/03/15 00:28:11;;;;;;;4.57;1.50;;;;;;;9.48;62.38;97943.28;4262004;33;34718;-90
2023/03/15 00:30:39;;;;;;;2.92;1.37;;;;;;;9.74;61.67;97934.59;4272589;33;33622;-89
2023/03/15 00:33:07;;;;;;;3.75;1.95;;;;;;;9.72;61.28;97936.31;4273279;33;33696;-90
2023/03/15 00:35:40;;;;;;;2.70;1.23;;;;;;;9.75;61.71;97941.47;4266013;33;33970;-84
2023/03/15 00:38:08;;;;;;;3.35;1.40;;;;;;;9.78;61.28;97935.44;4275818;33;33980;-88
2023/03/15 00:40:36;;;;;;;2.78;1.40;;;;;;;9.94;60.80;97932.78;4286554;33;33800;-92
2023/03/15 00:43:04;;;;;;;3.92;1.42;;;;;;;10.01;60.78;97938.78;4282770;33;33750;-93
2023/03/15 00:45:32;;;;;;;2.67;1.30;;;;;;;9.71;60.61;97925.09;4279624;33;34594;-87
2023/03/15 00:47:59;;;;;;;2.83;1.40;;;;;;;9.71;61.56;97919.94;4271961;33;34769;-86
2023/03/15 00:50:27;;;;;;;1.67;1.17;;;;;;;9.43;61.12;97903.66;4275269;33;33088;-91
2023/03/15 00:52:55;;;;;;;2.50;1.30;;;;;;;9.35;61.52;97909.69;4283791;33;33690;-87
2023/03/15 00:55:22;;;;;;;3.30;1.52;;;;;;;9.36;61.15;97896.78;4268555;33;34435;-93
2023/03/15 00:57:50;;;;;;;2.85;1.48;;;;;;;9.32;61.22;97901.94;4273024;33;33074;-88
2023/03/15 01:00:23;;;;;;;4.15;1.83;;;;;;;9.45;61.16;97898.47;4272383;33;33178;-87
2023/03/15 01:02:52;;;;;;;3.58;1.37;;;;;;;9.63;59.90;97903.56;4260938;33;34258;-88
2023/03/15 01:05:20;;;;;;;2.45;1.30;;;;;;;9.35;60.52;97907.09;4263668;33;33680;-91
2023/03/15 01:07:48;;;;;;;5.97;1.55;;;;;;;9.57;59.26;97905.31;4272003;33;33677;-83
2023/03/15 01:10:16;;;;;;;2.83;1.45;;;;;;;9.79;57.83;97913.88;4275593;33;33468;-85
2023/03/15 01:12:44;;;;;;;2.87;1.20;;;;;;;9.69;58.71;97900.09;4286337;33;34063;-84
2023/03/15 01:15:13;;;;;;;3.78;1.62;;;;;;;9.27;59.45;97913.16;4285490;33;34572;-84
2023/03/15 01:17:41;;;;;;;3.03;1.30;;;;;;;9.51;58.44;97908.81;4286721;33;34054;-77
2023/03/15 01:20:11;;;;;;;5.07;1.80;;;;;;;9.20;58.85;97898.50;4276219;33;34347;-88
2023/03/15 01:22:39;;;;;;;2.47;1.33;;;;;;;9.36;59.41;97907.13;4284474;33;34742;-85
2023/03/15 01:25:08;;;;;;;3.37;1.60;;;;;;;9.50;58.28;97904.47;4288228;33;35015;-85
2023/03/15 01:27:37;;;;;;;3.95;1.65;;;;;;;9.38;58.08;97907.09;4287779;33;34560;-86
2023/03/15 01:30:05;;;;;;;4.03;1.37;;;;;;;9.42;58.21;97899.31;4248758;33;33114;-91
2023/03/15 01:32:33;;;;;;;3.20;1.50;;;;;;;9.31;57.89;97902.81;4274562;33;33789;-85
2023/03/15 01:35:01;;;;;;;3.08;1.52;;;;;;;9.00;59.09;97903.72;4287395;33;35151;-85
2023/03/15 01:37:28;;;;;;;5.87;1.70;;;;;;;9.04;58.46;97906.31;4288277;33;34600;-85
2023/03/15 01:39:56;;;;;;;3.17;1.58;;;;;;;8.97;59.35;97905.44;4287766;33;33176;-85
2023/03/15 01:42:24;;;;;;;2.72;1.40;;;;;;;9.27;57.79;97902.81;4267778;33;34644;-84
2023/03/15 01:44:58;;;;;;;2.40;1.30;;;;;;;9.33;58.29;97912.28;4248865;33;33226;-86
2023/03/15 01:47:27;;;;;;;3.33;1.80;;;;;;;9.30;57.73;97906.25;4261404;33;33796;-85
2023/03/15 01:50:07;;;;;;;3.08;1.67;;;;;;;9.39;57.87;97914.84;4273761;33;33154;-90
2023/03/15 01:52:38;;;;;;;5.20;1.67;;;;;;;9.15;57.96;97913.19;4269502;33;33824;-85
2023/03/15 01:55:12;;;;;;;3.90;1.60;;;;;;;9.17;57.78;97915.78;4265388;33;34903;-87
2023/03/15 01:57:45;;;;;;;2.33;1.27;;;;;;;9.13;57.66;97919.22;4271745;33;34052;-86
2023/03/15 02:00:15;;;;;;;3.33;1.70;;;;;;;9.31;57.18;97919.19;4269980;33;34806;-87
2023/03/15 02:02:51;;;;;;;3.70;1.40;;;;;;;9.49;56.58;97918.28;4275190;33;34710;-86
2023/03/15 02:05:23;;;;;;;5.25;1.37;;;;;;;9.38;56.86;97917.44;4271085;33;34178;-85
2023/03/15 02:07:53;;;;;;;7.50;1.40;;;;;;;9.24;57.41;97910.59;4262771;33;34073;-84
2023/03/15 02:10:34;;;;;;;4.85;1.67;;;;;;;9.05;57.73;97919.22;4264335;33;34288;-86
2023/03/15 02:13:02;;;;;;;4.87;1.67;;;;;;;8.81;58.74;97916.66;4270568;33;33873;-85
2023/03/15 02:15:30;;;;;;;3.78;1.35;;;;;;;9.06;57.81;97920.97;4262471;33;35007;-83
2023/03/15 02:17:58;;;;;;;3.65;1.65;;;;;;;8.98;57.73;97914.94;4274942;33;33634;-86
2023/03/15 02:20:27;;;;;;;5.53;2.22;;;;;;;9.19;57.54;97922.66;4277358;33;34793;-84
2023/03/15 02:23:21;;;;;;;4.70;1.58;;;;;;;8.86;57.88;97920.09;4280652;33;33157;-86
2023/03/15 02:25:55;;;;;;;4.12;1.55;;;;;;;8.95;58.10;97920.13;4265632;33;34214;-84
2023/03/15 02:28:22;;;;;;;4.45;1.92;;;;;;;8.69;58.96;97909.78;4276552;33;34625;-85
2023/03/15 02:30:50;;;;;;;4.18;1.58;;;;;;;8.99;58.31;97916.66;4273116;33;32909;-84
2023/03/15 02:33:31;;;;;;;4.87;1.52;;;;;;;9.06;57.81;97918.38;4264754;33;33812;-84
2023/03/15 02:36:15;;;;;;;3.00;1.40;;;;;;;8.91;58.07;97926.16;4269991;33;35062;-85
2023/03/15 02:38:43;;;;;;;4.30;1.50;;;;;;;8.96;57.75;97920.09;4273299;33;34096;-84
2023/03/15 02:41:12;;;;;;;3.55;1.42;;;;;;;8.93;58.04;97920.09;4271309;33;33345;-85
2023/03/15 02:43:40;;;;;;;3.58;1.75;;;;;;;8.81;58.77;97921.84;4248574;33;32978;-84
2023/03/15 02:46:08;;;;;;;3.30;1.58;;;;;;;8.94;58.64;97918.38;4271612;33;35009;-91
2023/03/15 02:48:36;;;;;;;2.67;1.50;;;;;;;8.84;59.17;97921.84;4281046;33;34058;-87
2023/03/15 02:51:04;;;;;;;3.47;1.60;;;;;;;8.76;59.18;97922.69;4260387;33;34140;-86
2023/03/15 02:53:32;;;;;;;2.62;1.55;;;;;;;8.77;59.73;97924.41;4278538;33;34515;-86
2023/03/15 02:56:00;;;;;;;3.65;1.48;;;;;;;8.75;59.43;97921.00;4284218;33;34213;-87
2023/03/15 02:58:27;;;;;;;3.05;1.77;;;;;;;8.73;60.03;97920.09;4268718;33;34417;-88
2023/03/15 03:00:55;;;;;;;2.85;1.90;;;;;;;8.74;60.14;97921.81;4282026;33;33541;-86
2023/03/15 03:03:23;;;;;;;3.47;1.85;;;;;;;8.70;60.37;97914.06;4276588;33;33813;-86
2023/03/15 03:05:51;;;;;;;3.30;1.98;;;;;;;8.69;60.44;97918.38;4272930;33;34584;-87
2023/03/15 03:08:19;;;;;;;6.00;1.80;;;;;;;8.59;61.04;97908.91;4261304;33;33822;-86
2023/03/15 03:10:47;;;;;;;3.37;1.92;;;;;;;8.69;60.72;97918.38;4274625;33;33880;-86
2023/03/15 03:13:14;;;;;;;3.85;2.00;;;;;;;8.50;61.22;97921.81;4263763;33;33829;-85
2023/03/15 03:15:44;;;;;;;4.82;2.35;;;;;;;8.67;61.05;97920.09;4274129;33;34129;-86
2023/03/15 03:18:12;;;;;;;3.42;2.00;;;;;;;8.63;61.23;97913.22;4273170;33;34445;-85
2023/03/15 03:20:39;;;;;;;4.22;2.35;;;;;;;8.52;61.41;97917.50;4261011;33;32842;-85
2023/03/15 03:23:07;;;;;;;4.10;2.05;;;;;;;8.83;60.74;97912.37;4273483;33;34249;-85
2023/03/15 03:25:35;;;;;;;4.43;2.62;;;;;;;8.53;61.50;97924.41;4286326;33;35691;-86
2023/03/15 03:28:03;;;;;;;4.50;1.95;;;;;;;8.40;62.17;97920.09;4273172;33;33977;-86
2023/03/15 03:30:30;;;;;;;3.72;2.30;;;;;;;8.54;62.38;97923.56;4275836;33;33631;-86
2023/03/15 03:32:58;;;;;;;3.95;2.25;;;;;;;8.63;62.14;97918.38;4280119;33;33825;-87
2023/03/15 03:35:26;;;;;;;3.70;2.35;;;;;;;8.74;61.10;97911.50;4272059;33;34075;-86
2023/03/15 03:37:54;;;;;;;3.40;2.00;;;;;;;8.64;60.73;97907.19;4272792;33;34582;-86
2023/03/15 03:40:22;;;;;;;2.75;1.90;;;;;;;8.69;59.70;97897.72;4279346;33;33441;-85
2023/03/15 03:42:50;;;;;;;3.12;1.70;;;;;;;8.63;59.37;97910.63;4279425;33;33920;-86
2023/03/15 03:45:18;;;;;;;3.37;1.60;;;;;;;8.84;58.03;97893.41;4265842;33;33886;-87
2023/03/15 03:47:46;;;;;;;2.87;1.75;;;;;;;8.54;57.84;97913.22;4273622;33;34031;-84
2023/03/15 03:50:14;;;;;;;2.92;1.70;;;;;;;8.65;57.56;97896.00;4277722;33;33976;-86
2023/03/15 03:52:42;;;;;;;3.25;1.77;;;;;;;8.56;58.02;97890.84;4280399;33;34650;-88
2023/03/15 03:55:13;;;;;;;3.90;1.60;;;;;;;8.66;57.74;97884.78;4282859;33;34115;-86
2023/03/15 03:57:41;;;;;;;2.62;1.60;;;;;;;8.50;58.27;97904.59;4275511;33;35018;-88
2023/03/15 04:00:13;;;;;;;2.72;1.62;;;;;;;8.51;58.27;97903.72;4274674;33;34349;-87
2023/03/15 04:02:41;;;;;;;4.28;2.05;;;;;;;8.46;58.74;97910.63;4277168;33;34092;-90
2023/03/15 04:05:11;;;;;;;5.22;1.98;;;;;;;8.45;58.98;97918.38;4270421;33;34036;-89
2023/03/15 04:07:38;;;;;;;3.17;1.80;;;;;;;8.36;59.42;97914.00;4264501;33;33960;-86
2023/03/15 04:10:07;;;;;;;2.20;1.60;;;;;;;8.19;59.44;97919.16;4270903;33;33448;-86
2023/03/15 04:12:35;;;;;;;3.33;1.87;;;;;;;8.80;57.65;97933.03;4274909;33;33934;-87
2023/03/15 04:15:03;;;;;;;3.45;1.80;;;;;;;8.76;57.87;97945.94;4282064;33;34978;-89
2023/03/15 04:17:31;;;;;;;2.50;1.65;;;;;;;8.63;57.98;97953.69;4263802;33;34571;-88
2023/03/15 04:20:04;;;;;;;3.42;1.75;;;;;;;8.77;57.07;97957.16;4273604;33;34052;-87
2023/03/15 04:22:34;;;;;;;2.70;1.60;;;;;;;8.53;57.25;97968.34;4278664;33;32448;-91
2023/03/15 04:25:02;;;;;;;4.12;1.52;;;;;;;8.93;56.07;97976.09;4275478;33;33779;-87
2023/03/15 04:27:30;;;;;;;2.80;1.70;;;;;;;8.72;56.30;97977.81;4269396;33;34676;-87
2023/03/15 04:29:58;;;;;;;3.15;1.52;;;;;;;8.48;56.06;97967.44;4273903;33;33131;-88
2023/03/15 04:32:27;;;;;;;3.28;1.40;;;;;;;8.18;55.98;97982.00;4262720;33;33788;-87
2023/03/15 04:34:54;;;;;;;2.97;1.20;;;;;;;7.93;55.87;97985.34;4279255;33;34256;-88
2023/03/15 04:37:22;;;;;;;2.58;1.45;;;;;;;7.78;55.36;97989.56;4262113;33;33808;-90
2023/03/15 04:39:51;;;;;;;2.65;1.20;;;;;;;7.90;54.95;97999.06;4283128;33;33250;-90
2023/03/15 04:42:19;;;;;;;1.92;1.12;;;;;;;7.98;54.33;97993.94;4285060;33;34782;-86
2023/03/15 04:44:47;;;;;;;2.03;1.20;;;;;;;7.97;54.47;98002.56;4280284;33;35290;-86
2023/03/15 04:47:14;;;;;;;2.35;1.23;;;;;;;7.98;54.46;98006.84;4260048;33;34292;-87
2023/03/15 04:49:42;;;;;;;2.03;1.20;;;;;;;8.05;54.00;98009.47;4271185;33;31978;-87
2023/03/15 04:52:10;;;;;;;2.42;1.30;;;;;;;7.59;54.82;98018.69;4287883;33;33517;-88
2023/03/15 04:54:38;;;;;;;2.60;1.33;;;;;;;7.52;55.30;98029.81;4274859;33;34279;-87
2023/03/15 04:57:07;;;;;;;2.35;1.45;;;;;;;7.55;54.90;98038.44;4281456;33;34098;-90
2023/03/15 04:59:35;;;;;;;2.90;1.48;;;;;;;7.81;54.37;98032.59;4278293;33;33605;-86
2023/03/15 05:02:04;;;;;;;2.17;1.25;;;;;;;7.96;54.13;98048.16;4258733;33;33729;-87
2023/03/15 05:04:32;;;;;;;2.72;1.40;;;;;;;7.85;54.16;98049.81;4283019;33;34934;-88
2023/03/15 05:07:00;;;;;;;3.00;1.83;;;;;;;7.40;55.00;98052.94;4276637;33;34597;-90
2023/03/15 05:09:28;;;;;;;3.05;1.60;;;;;;;7.77;54.33;98052.34;4273965;33;34121;-88
2023/03/15 05:11:56;;;;;;;3.30;1.50;;;;;;;7.72;54.32;98042.84;4288261;33;34062;-87
2023/03/15 05:14:26;;;;;;;2.92;1.80;;;;;;;7.54;55.28;98030.72;4261163;33;33427;-88
2023/03/15 05:16:57;;;;;;;3.37;1.50;;;;;;;7.61;55.49;98035.03;4279769;33;34500;-87
2023/03/15 05:19:26;;;;;;;3.33;1.70;;;;;;;7.53;55.67;98032.41;4280287;33;33624;-88
2023/03/15 05:21:54;;;;;;;4.15;1.80;;;;;;;7.49;55.88;98037.53;4273911;33;34088;-86
2023/03/15 05:24:22;;;;;;;3.58;2.08;;;;;;;7.14;56.79;98045.00;4273244;33;34262;-86
2023/03/15 05:26:53;;;;;;;4.87;2.25;;;;;;;7.15;56.37;98044.16;4289273;33;34601;-88
2023/03/15 05:29:21;;;;;;;3.80;2.30;;;;;;;7.46;55.63;98035.81;4269990;33;34104;-87
2023/03/15 05:31:51;;;;;;;4.00;2.60;;;;;;;7.18;57.00;98039.88;4273662;33;33803;-87
2023/03/15 05:34:23;;;;;;;4.93;2.50;;;;;;;7.13;56.72;98028.69;4261787;33;33924;-87
2023/03/15 05:36:50;;;;;;;5.32;3.08;;;;;;;7.14;56.06;98045.88;4283763;33;34453;-86
2023/03/15 05:39:18;;;;;;;4.32;2.67;;;;;;;6.89;57.21;98052.50;4277467;33;33243;-88
2023/03/15 05:41:46;;;;;;;4.62;3.05;;;;;;;6.56;58.20;98040.19;4276225;33;33934;-88
2023/03/15 05:44:15;;;;;;;6.20;3.50;;;;;;;6.44;58.45;98042.59;4282540;33;34894;-86
2023/03/15 05:46:43;;;;;;;4.22;3.25;;;;;;;6.63;58.55;98044.53;4283514;33;34015;-85
2023/03/15 05:49:11;;;;;;;5.47;3.33;;;;;;;6.81;57.92;98039.56;4287108;33;33622;-87
2023/03/15 05:51:39;;;;;;;5.20;3.28;;;;;;;6.84;57.70;98031.00;4275132;33;33885;-86
2023/03/15 05:54:06;;;;;;;6.55;4.18;;;;;;;6.32;59.94;98033.87;4284039;33;34716;-87
2023/03/15 05:56:34;;;;;;;5.10;3.75;;;;;;;6.20;60.30;98036.31;4279599;33;33873;-86
2023/03/15 05:59:03;;;;;;;5.35;3.55;;;;;;;6.45;59.35;98041.78;4278984;33;34289;-87
2023/03/15 06:01:33;;;;;;;6.40;4.70;;;;;;;6.59;58.59;98037.59;4260985;33;33807;-87
2023/03/15 06:04:02;;;;;;;7.37;3.90;;;;;;;6.58;59.15;98038.47;4285414;33;34151;-87
2023/03/15 06:06:30;;;;;;;7.90;4.45;;;;;;;6.58;58.94;98038.47;4281832;33;33971;-88
2023/03/15 06:09:00;;;;;;;5.37;4.37;;;;;;;6.68;58.17;98045.44;4284879;33;34151;-87
2023/03/15 06:11:28;;;;;;;7.18;4.40;;;;;;;6.53;58.98;98053.88;4278801;33;33653;-88
2023/03/15 06:13:57;;;;;;;6.82;4.35;;;;;;;6.35;60.21;98038.22;4287210;33;33795;-88
2023/03/15 06:16:26;;;;;;;7.30;4.62;;;;;;;6.13;60.97;98044.81;4286580;33;33718;-87
2023/03/15 06:18:55;;;;;;;7.25;4.80;;;;;;;6.38;59.79;98034.81;4267258;33;34318;-88
2023/03/15 06:21:22;;;;;;;8.55;5.00;;;;;;;6.37;60.16;98036.53;4273321;33;33476;-88
2023/03/15 06:23:50;;;;;;;6.00;4.53;;;;;;;6.33;60.36;98045.94;4277839;33;34358;-88
2023/03/15 06:26:18;;;;;;;6.40;4.68;;;;;;;6.52;60.16;98038.41;4283863;33;34764;-87
2023/03/15 06:28:46;;;;;;;31.87;16.48;;;;;;;6.29;60.61;98049.31;4284728;33;34346;-89
2023/03/15 06:31:13;;;;;;;8.50;6.28;;;;;;;6.05;60.91;98049.87;4284276;33;33940;-88
2023/03/15 06:33:43;;;;;;;8.05;5.45;;;;;;;6.22;60.90;98051.81;4260782;33;33299;-88
2023/03/15 06:36:11;;;;;;;7.53;5.55;;;;;;;6.32;60.76;98059.63;4274593;33;34596;-86
2023/03/15 06:38:40;;;;;;;8.93;5.78;;;;;;;6.43;60.41;98041.72;4265971;33;33990;-87
2023/03/15 06:41:08;;;;;;;7.50;5.45;;;;;;;6.14;61.37;98055.97;4282090;33;34730;-85
2023/03/15 06:43:37;;;;;;;7.57;5.25;;;;;;;6.05;61.63;98055.00;4281610;33;33960;-86
2023/03/15 06:46:05;;;;;;;10.27;5.97;;;;;;;6.24;60.98;98050.94;4275160;33;34034;-86
2023/03/15 06:48:33;;;;;;;9.07;6.37;;;;;;;6.51;60.41;98046.97;4275256;33;33345;-86
2023/03/15 06:51:01;;;;;;;8.35;6.05;;;;;;;6.40;60.92;98051.13;4252698;33;32920;-86
2023/03/15 06:53:28;;;;;;;7.22;5.40;;;;;;;6.50;60.42;98055.53;4273317;33;33873;-86
2023/03/15 06:55:56;;;;;;;9.93;5.53;;;;;;;6.15;61.31;98070.59;4271198;33;33956;-86
2023/03/15 06:58:23;;;;;;;7.65;5.35;;;;;;;6.41;60.63;98073.47;4271107;33;33622;-87
2023/03/15 07:00:51;;;;;;;7.57;5.25;;;;;;;6.99;58.85;98081.81;4259761;33;34499;-86
2023/03/15 07:03:21;;;;;;;7.90;4.80;;;;;;;6.45;60.00;98086.41;4265502;33;34160;-90
2023/03/15 07:05:51;;;;;;;6.65;4.85;;;;;;;6.66;60.57;98079.75;4273726;33;34052;-82
2023/03/15 07:08:23;;;;;;;7.80;5.32;;;;;;;6.83;58.58;98086.81;4277537;33;32155;-86
2023/03/15 07:10:51;;;;;;;12.75;6.03;;;;;;;6.13;60.74;98088.56;4278865;33;34656;-87
2023/03/15 07:13:19;;;;;;;10.45;5.87;;;;;;;6.23;60.53;98086.97;4266194;33;34298;-85
2023/03/15 07:15:53;;;;;;;10.05;6.37;;;;;;;6.04;60.93;98091.03;4271917;33;34153;-86
2023/03/15 07:18:21;;;;;;;10.23;6.65;;;;;;;6.20;60.60;98086.94;4276034;33;34488;-86
2023/03/15 07:20:59;;;;;;;14.30;9.52;;;;;;;6.44;59.38;98089.81;4281621;33;33618;-86
2023/03/15 07:23:27;;;;;;;12.50;8.15;;;;;;;6.18;60.58;98097.22;4280527;33;34111;-88
2023/03/15 07:25:54;;;;;;;9.90;7.07;;;;;;;6.45;59.41;98114.72;4279806;33;33651;-86
2023/03/15 07:28:23;;;;;;;15.57;8.73;;;;;;;6.26;60.16;98118.78;4272349;33;33087;-88
2023/03/15 07:30:55;;;;;;;11.55;7.90;;;;;;;6.57;58.52;98112.28;4259963;33;34258;-88
2023/03/15 07:33:24;;;;;;;12.68;8.30;;;;;;;6.44;58.67;98114.69;4252198;33;34317;-90
2023/03/15 07:35:52;;;;;;;14.30;8.23;;;;;;;6.47;59.62;98127.59;4262360;33;34086;-87
2023/03/15 07:38:25;;;;;;;12.57;9.27;;;;;;;6.60;58.45;98129.50;4269123;33;33164;-81
2023/03/15 07:40:53;;;;;;;11.77;8.38;;;;;;;6.24;59.40;98122.16;4283943;33;34002;-89
2023/03/15 07:43:21;;;;;;;14.90;10.18;;;;;;;6.30;58.74;98135.97;4265551;33;34354;-89
2023/03/15 07:45:49;;;;;;;9.98;7.28;;;;;;;6.49;58.60;98133.66;4248175;33;33143;-88
2023/03/15 07:48:17;;;;;;;11.32;6.93;;;;;;;6.41;58.99;98135.25;4273037;33;33403;-88
2023/03/15 07:50:45;;;;;;;11.10;7.20;;;;;;;6.20;59.07;98128.97;4260049;33;33828;-87
2023/03/15 07:53:12;;;;;;;14.40;7.45;;;;;;;6.68;58.09;98133.00;4273515;33;33493;-87
2023/03/15 07:55:40;;;;;;;11.77;6.75;;;;;;;6.65;57.96;98138.12;4282529;33;33846;-89
2023/03/15 07:58:07;;;;;;;11.52;7.37;;;;;;;6.67;57.39;98148.47;4268638;33;34469;-89
2023/03/15 08:00:35;;;;;;;12.23;7.03;;;;;;;6.85;57.12;98133.19;4286255;33;33685;-87
2023/03/15 08:03:04;;;;;;;9.05;6.62;;;;;;;6.90;56.80;98153.88;4285891;33;33204;-89
2023/03/15 08:05:33;;;;;;;10.75;6.25;;;;;;;6.87;57.11;98146.09;4286023;33;34181;-87
2023/03/15 08:08:00;;;;;;;12.10;6.60;;;;;;;7.04;55.66;98145.41;4278620;33;34748;-87
2023/03/15 08:10:28;;;;;;;8.68;6.12;;;;;;;7.03;56.32;98159.16;4274330;33;33708;-85
2023/03/15 08:12:55;;;;;;;11.63;6.50;;;;;;;7.09;55.75;98160.94;4259710;33;34617;-87
2023/03/15 08:15:23;;;;;;;8.65;6.62;;;;;;;7.00;56.82;98147.94;4285055;33;34029;-88
2023/03/15 08:17:51;;;;;;;9.85;5.53;;;;;;;6.82;56.03;98164.94;4283557;33;33600;-87
2023/03/15 08:20:18;;;;;;;10.82;5.97;;;;;;;6.89;56.40;98145.25;4284797;33;33951;-86
2023/03/15 08:22:47;;;;;;;11.02;5.93;;;;;;;6.48;57.50;98167.97;4276495;33;34892;-87
2023/03/15 08:25:18;;;;;;;10.57;5.28;;;;;;;6.69;56.49;98152.75;4259467;33;32005;-87
2023/03/15 08:27:46;;;;;;;8.40;5.43;;;;;;;6.77;56.57;98164.00;4261386;33;33047;-85
2023/03/15 08:30:14;;;;;;;9.30;5.03;;;;;;;6.33;56.87;98154.03;4259949;33;34540;-87
2023/03/15 08:32:43;;;;;;;9.65;5.70;;;;;;;6.74;56.48;98156.28;4265238;33;32533;-87
2023/03/15 08:35:13;;;;;;;9.57;5.15;;;;;;;6.99;55.85;98157.41;4259215;33;34286;-87
2023/03/15 08:37:46;;;;;;;9.13;5.72;;;;;;;6.67;55.76;98157.03;4265325;33;33772;-88
2023/03/15 08:40:17;;;;;;;10.35;5.60;;;;;;;6.96;54.28;98165.09;4282650;33;33471;-86
2023/03/15 08:42:45;;;;;;;10.85;5.07;;;;;;;6.67;55.04;98164.78;4253256;33;33391;-86
2023/03/15 08:45:13;;;;;;;10.20;5.45;;;;;;;6.73;54.94;98159.69;4276535;33;33711;-85
2023/03/15 08:47:41;;;;;;;9.30;4.85;;;;;;;6.64;54.72;98167.31;4276432;33;34329;-86
2023/03/15 08:50:11;;;;;;;9.93;4.72;;;;;;;6.67;54.17;98167.34;4274995;33;33933;-87
2023/03/15 08:52:39;;;;;;;10.52;4.72;;;;;;;6.73;53.92;98179.41;4259230;33;34980;-85
2023/03/15 08:55:07;;;;;;;10.57;4.93;;;;;;;6.36;53.96;98190.94;4282466;33;35004;-86
2023/03/15 08:57:35;;;;;;;8.60;4.82;;;;;;;6.25;55.68;98190.78;4264560;33;32287;-88
2023/03/15 09:00:07;;;;;;;9.63;5.03;;;;;;;6.22;54.82;98201.94;4277575;33;33965;-88
2023/03/15 09:02:36;;;;;;;10.57;4.95;;;;;;;6.15;54.95;98215.56;4272125;33;35021;-86
2023/03/15 09:05:05;;;;;;;12.10;4.65;;;;;;;6.41;54.37;98209.91;4265208;33;34719;-88
2023/03/15 09:07:33;;;;;;;8.40;4.57;;;;;;;6.20;54.69;98216.47;4262209;33;32663;-81
2023/03/15 09:10:03;;;;;;;8.40;4.25;;;;;;;6.37;54.20;98218.44;4285556;33;34242;-86
2023/03/15 09:12:31;;;;;;;9.10;4.60;;;;;;;6.44;54.50;98227.97;4275145;33;34272;-87
2023/03/15 09:14:59;;;;;;;7.37;4.30;;;;;;;6.59;54.78;98246.19;4290926;33;33776;-90
2023/03/15 09:17:26;;;;;;;9.65;4.82;;;;;;;6.36;54.41;98234.72;4285408;33;33532;-91
2023/03/15 09:19:54;;;;;;;9.65;4.35;;;;;;;6.24;54.95;98245.69;4270130;33;33684;-84
2023/03/15 09:22:21;;;;;;;11.68;4.10;;;;;;;6.51;53.23;98245.22;4275239;33;34822;-87
2023/03/15 09:25:08;;;;;;;9.18;4.82;;;;;;;6.12;55.19;98250.66;4277175;33;33276;-85
2023/03/15 09:27:36;;;;;;;10.52;4.22;;;;;;;6.30;54.15;98254.38;4276639;33;34344;-87
2023/03/15 09:30:04;;;;;;;9.88;4.68;;;;;;;6.71;53.33;98242.94;4264703;33;33877;-88
2023/03/15 09:32:35;;;;;;;7.55;4.00;;;;;;;6.36;53.90;98253.59;4281566;33;35057;-83
2023/03/15 09:35:04;;;;;;;12.07;5.25;;;;;;;6.44;53.39;98258.84;4276502;33;33997;-89
2023/03/15 09:37:32;;;;;;;11.55;4.72;;;;;;;6.55;52.85;98262.44;4275460;33;34244;-86
2023/03/15 09:40:00;;;;;;;10.75;4.55;;;;;;;6.43;53.18;98262.28;4260921;33;33204;-90
2023/03/15 09:42:39;;;;;;;11.27;4.07;;;;;;;6.48;53.00;98281.25;4273595;33;33827;-87
2023/03/15 09:45:48;;;;;;;9.13;3.87;;;;;;;6.80;51.81;98281.69;4273797;33;34062;-87
2023/03/15 09:48:34;;;;;;;8.27;4.35;;;;;;;6.61;51.70;98270.28;4237954;33;34069;-87
2023/03/15 09:51:13;;;;;;;10.30;4.50;;;;;;;6.44;51.76;98290.66;4239628;33;34653;-87
2023/03/15 09:53:44;;;;;;;12.43;4.28;;;;;;;6.28;52.01;98281.78;4252315;33;34064;-85
2023/03/15 09:56:22;;;;;;;8.98;3.97;;;;;;;6.52;51.48;98272.72;4274416;33;34049;-87
2023/03/15 09:58:51;;;;;;;11.43;4.10;;;;;;;6.46;51.36;98276.06;4265055;33;33489;-85
2023/03/15 10:01:30;;;;;;;8.50;3.78;;;;;;;6.81;49.92;98281.69;4256488;33;34046;-83
2023/03/15 10:04:04;;;;;;;10.73;4.22;;;;;;;6.41;51.57;98261.41;4249242;33;34854;-88
2023/03/15 10:06:33;;;;;;;7.90;4.10;;;;;;;6.46;50.46;98278.66;4266844;33;34518;-85
2023/03/15 10:09:12;;;;;;;11.40;4.75;;;;;;;6.58;51.33;98288.25;4273527;33;34268;-85
2023/03/15 10:11:49;;;;;;;9.73;3.90;;;;;;;7.18;49.36;98295.06;4261935;33;34710;-87
2023/03/15 10:14:38;;;;;;;8.27;3.58;;;;;;;7.03;49.04;98287.16;4270909;33;34216;-85
2023/03/15 10:17:17;;;;;;;9.00;4.12;;;;;;;7.02;48.50;98286.28;4281629;33;33549;-90
2023/03/15 10:19:49;;;;;;;8.27;4.10;;;;;;;6.99;48.98;98280.22;4278564;33;33181;-89
2023/03/15 10:22:38;;;;;;;11.23;3.83;;;;;;;6.94;48.67;98282.75;4266670;33;33919;-88
2023/03/15 10:25:27;;;;;;;8.38;3.97;;;;;;;6.68;49.44;98287.56;4282935;33;34990;-83
2023/03/15 10:27:58;;;;;;;7.37;3.70;;;;;;;7.06;49.26;98282.03;4277081;33;33636;-84
2023/03/15 10:30:29;;;;;;;13.13;4.03;;;;;;;7.06;48.53;98297.50;4264117;33;33522;-83
2023/03/15 10:33:04;;;;;;;7.70;3.50;;;;;;;7.24;47.65;98290.00;4260408;33;33857;-86
2023/03/15 10:35:32;;;;;;;9.27;3.80;;;;;;;6.98;48.16;98297.41;4278579;33;34002;-87
2023/03/15 10:38:01;;;;;;;9.30;3.50;;;;;;;7.12;48.44;98318.19;4249170;33;32153;-86
2023/03/15 10:40:43;;;;;;;8.90;4.72;;;;;;;7.26;47.97;98316.66;4280098;33;33272;-85
2023/03/15 10:43:22;;;;;;;7.65;4.07;;;;;;;7.69;47.47;98312.00;4277975;33;33446;-87
2023/03/15 10:46:04;;;;;;;10.27;4.40;;;;;;;7.51;47.16;98310.06;4276371;33;34969;-84
2023/03/15 10:48:34;;;;;;;10.95;4.10;;;;;;;7.32;47.12;98319.31;4273755;33;34050;-85
2023/03/15 10:51:27;;;;;;;9.82;3.62;;;;;;;6.81;48.98;98322.91;4271000;33;34368;-85
2023/03/15 10:54:01;;;;;;;8.80;4.20;;;;;;;7.13;48.53;98316.50;4279638;33;33825;-87
2023/03/15 10:56:31;;;;;;;6.85;4.40;;;;;;;7.20;47.23;98319.16;4271562;33;34003;-88
2023/03/15 10:58:58;;;;;;;11.12;4.80;;;;;;;7.20;47.21;98332.06;4263367;33;34016;-87
2023/03/15 11:01:39;;;;;;;8.43;3.75;;;;;;;7.36;45.91;98319.34;4270503;33;32791;-86
2023/03/15 11:04:22;;;;;;;8.77;4.12;;;;;;;7.13;46.39;98325.09;4260468;33;33879;-89
2023/03/15 11:07:01;;;;;;;9.05;4.15;;;;;;;7.19;46.15;98334.59;4273325;33;34912;-89
2023/03/15 11:09:40;;;;;;;8.63;4.45;;;;;;;7.42;46.21;98334.88;4273220;33;34040;-87
2023/03/15 11:12:25;;;;;;;8.50;5.03;;;;;;;7.40;45.26;98339.16;4267427;33;33544;-87
2023/03/15 11:15:14;;;;;;;13.18;4.50;;;;;;;7.00;45.95;98343.78;4273370;33;33814;-86
2023/03/15 11:17:45;;;;;;;11.48;3.92;;;;;;;7.58;45.42;98349.69;4273031;33;33941;-89
2023/03/15 11:20:28;;;;;;;9.55;3.97;;;;;;;7.50;45.45;98348.72;4273098;33;33847;-88
2023/03/15 11:22:56;;;;;;;9.73;4.22;;;;;;;7.60;44.80;98349.72;4260614;33;34511;-89
2023/03/15 11:25:30;;;;;;;11.70;4.15;;;;;;;8.15;44.09;98350.28;4260335;33;33700;-90
2023/03/15 11:27:59;;;;;;;7.82;4.12;;;;;;;7.99;44.53;98334.66;4273101;33;33798;-89
2023/03/15 11:30:30;;;;;;;9.88;4.37;;;;;;;7.55;44.25;98340.22;4260753;33;34150;-89
2023/03/15 11:33:02;;;;;;;13.27;4.93;;;;;;;7.68;44.74;98355.81;4262739;33;34434;-88
2023/03/15 11:35:34;;;;;;;11.35;4.28;;;;;;;7.17;45.44;98362.09;4268672;33;34220;-88
2023/03/15 11:38:13;;;;;;;11.50;4.45;;;;;;;7.44;44.67;98353.81;4260048;33;33962;-90
2023/03/15 11:40:46;;;;;;;12.07;4.40;;;;;;;7.23;44.92;98351.81;4281504;33;34475;-88
2023/03/15 11:43:21;;;;;;;12.37;5.20;;;;;;;7.54;45.07;98351.38;4279346;33;33512;-87
2023/03/15 11:46:00;;;;;;;11.30;4.12;;;;;;;7.54;44.28;98317.84;4274489;33;33277;-89
2023/03/15 11:48:41;;;;;;;9.27;4.40;;;;;;;7.41;43.81;98338.31;4261443;33;34320;-89
2023/03/15 11:51:11;;;;;;;9.00;4.22;;;;;;;7.45;44.64;98352.97;4282520;33;33799;-89
2023/03/15 11:53:45;;;;;;;10.43;4.53;;;;;;;7.29;45.00;98346.75;4287414;33;33128;-86